Vancouver International Airport
CYVR : now visible

Airfield :











YOU CAN JOIN US ON...

 
LOGIN :

Register | Disclaimer

   EN    FR    IT 

 









Legend :    VFR   Marginal VFR   IFR   Intensive IFR   Very Intensive IFR
Visi :
Ceiling :
>= 8 km
>= 3000ft
5 to 8 km
1000 to 3000 ft
1500m to 5 km
500 to 1000 ft
800 to 1500m
200 to 500 ft
< 800m
< 200 ft
Symbols :   Thunderstorms  Fog  Heavy snow  Heavy precipitations  Wind > 20 kt







- Airport Elevation : 14 ft
- IATA code : YVR


CYVR - Vancouver International

CURRENT METAR :
  • 152100Z 23007KT 200V270 30SM FEW040 FEW250 20/13 A3004 RMK CU1CI1 SLP175 DENSITY ALT 500FT

EXPIRED METARs :
  • 152000Z 24006KT 200V320 30SM FEW030 FEW230 20/13 A3006 RMK CU1CI1 CONTRAILS SLP181 DENSITY ALT 500FT
  • 151900Z 24007KT 210V280 30SM FEW030 FEW046 FEW250 19/13 A3007 RMK CU1SC1CI1 CI TR SLP183 DENSITY ALT 400FT

TAF TAF CYVR
Valid from the 15 at 21:00 until the 17 at 00:00 UTC


152042Z 1521/1624 24008KT P6SM FEW030 FEW250
BECMG 1602/1604 VRB03KT
BECMG 1605/1607 11010KT
FM162000 23008KT P6SM SCT150 RMK NXT FCST BY 160000Z
CZVR FIR / North America



MET'MAP, your aeronautical weather chart ! - Copyright ORBIFLY December 2007 - Disclaimer

ORBIFLY MET'MAP TEAM :

Programming & Development : Alexandra Zaïnal
Concept & Development : Baudouin d'Aumeries
Co-Development & Prog : Marc-Olivier Méhu
Technical & hardware support : Manuel Goepfert

Contact : metmap@orbifly.com




SOURCES & CREDITS :

   NOAA       Earth
Advisory